Time;durP1;ratioP1;P1;durP2;ratioP2;P2;SDS_P1;SDS_P2;PMS_P1;PMS_P2;Temp;Humidity;BMP_temperature;BMP_pressure;BME280_temperature;BME280_humidity;BME280_pressure;Samples;Min_cycle;Max_cycle;Signal;HPM_P1;HPM_P2
2023/07/20 00:02:19;;;;;;;5.40;2.92;;;;;;;;;;5033600;28;21716;-78
2023/07/20 00:04:47;;;;;;;6.10;2.65;;;;;;;;;;5025089;28;20059;-74
2023/07/20 00:07:13;;;;;;;9.93;3.30;;;;;;;;;;5035775;28;20037;-77
2023/07/20 00:09:41;;;;;;;6.00;2.92;;;;;;;;;;5038429;28;20179;-76
2023/07/20 00:12:08;;;;;;;5.85;2.90;;;;;;;;;;5035643;28;21656;-77
2023/07/20 00:14:34;;;;;;;7.50;2.85;;;;;;;;;;5034631;28;20060;-77
2023/07/20 00:17:00;;;;;;;5.75;3.00;;;;;;;;;;5032047;28;20449;-77
2023/07/20 00:19:26;;;;;;;6.30;2.58;;;;;;;;;;5034070;28;20040;-78
2023/07/20 00:21:53;;;;;;;7.55;2.85;;;;;;;;;;5032853;28;20401;-79
2023/07/20 00:24:19;;;;;;;6.30;2.53;;;;;;;;;;5033143;28;20052;-77
2023/07/20 00:26:49;;;;;;;5.22;2.67;;;;;;;;;;5032249;28;20029;-78
2023/07/20 00:29:16;;;;;;;6.85;2.45;;;;;;;;;;5035400;28;20024;-77
2023/07/20 00:31:43;;;;;;;8.10;2.45;;;;;;;;;;5030178;28;20041;-79
2023/07/20 00:34:09;;;;;;;6.53;2.35;;;;;;;;;;5034949;28;20051;-76
2023/07/20 00:36:37;;;;;;;6.40;2.50;;;;;;;;;;5029491;28;20031;-79
2023/07/20 00:39:03;;;;;;;5.15;2.40;;;;;;;;;;5032483;28;20044;-76
2023/07/20 00:41:29;;;;;;;5.45;2.25;;;;;;;;;;5031150;28;20047;-78
2023/07/20 00:43:56;;;;;;;5.97;2.65;;;;;;;;;;5029112;28;20041;-76
2023/07/20 00:46:24;;;;;;;6.65;3.25;;;;;;;;;;5030636;28;20034;-78
2023/07/20 00:48:50;;;;;;;9.50;2.60;;;;;;;;;;5049416;28;20156;-76
2023/07/20 00:51:18;;;;;;;5.90;2.47;;;;;;;;;;5023713;28;20097;-74
2023/07/20 00:53:44;;;;;;;12.30;3.00;;;;;;;;;;5039850;28;20037;-76
2023/07/20 00:56:11;;;;;;;5.95;2.30;;;;;;;;;;5037571;28;20034;-77
2023/07/20 00:58:37;;;;;;;5.03;2.63;;;;;;;;;;5047836;28;20478;-76
2023/07/20 01:01:05;;;;;;;10.85;2.55;;;;;;;;;;5041374;28;20048;-78
2023/07/20 01:03:31;;;;;;;9.05;3.00;;;;;;;;;;5037886;28;20041;-75
2023/07/20 01:06:10;;;;;;;6.60;2.60;;;;;;;;;;5057329;28;20060;-76
2023/07/20 01:08:43;;;;;;;6.90;3.25;;;;;;;;;;5042663;28;20049;-72
2023/07/20 01:11:17;;;;;;;9.82;3.63;;;;;;;;;;5037189;28;20040;-79
2023/07/20 01:13:44;;;;;;;9.68;2.70;;;;;;;;;;5028787;28;20087;-78
2023/07/20 01:16:09;;;;;;;5.97;2.53;;;;;;;;;;5032346;28;20025;-79
2023/07/20 01:18:39;;;;;;;6.15;2.40;;;;;;;;;;5038235;28;20434;-76
2023/07/20 01:21:12;;;;;;;8.20;2.63;;;;;;;;;;5033580;28;20116;-76
2023/07/20 01:23:50;;;;;;;6.70;3.03;;;;;;;;;;5034140;28;20039;-76
2023/07/20 01:26:30;;;;;;;4.00;2.35;;;;;;;;;;5035369;28;20034;-78
2023/07/20 01:29:17;;;;;;;9.45;2.83;;;;;;;;;;5033376;28;20044;-76
2023/07/20 01:31:44;;;;;;;7.50;2.83;;;;;;;;;;5039833;28;20109;-75
2023/07/20 01:34:12;;;;;;;4.68;2.35;;;;;;;;;;5033311;28;20025;-78
2023/07/20 01:36:38;;;;;;;6.53;2.22;;;;;;;;;;5034090;28;20060;-76
2023/07/20 01:39:05;;;;;;;5.40;2.78;;;;;;;;;;5019377;28;20025;-77
2023/07/20 01:41:34;;;;;;;5.22;2.30;;;;;;;;;;5036064;28;20036;-79
2023/07/20 01:44:00;;;;;;;3.85;2.10;;;;;;;;;;5037023;28;20043;-77
2023/07/20 01:46:26;;;;;;;6.68;2.78;;;;;;;;;;5039181;28;20029;-79
2023/07/20 01:48:53;;;;;;;6.30;2.80;;;;;;;;;;5040927;28;20071;-73
2023/07/20 01:51:19;;;;;;;5.97;2.45;;;;;;;;;;5044632;28;20026;-74
2023/07/20 01:53:45;;;;;;;7.43;2.00;;;;;;;;;;5049211;28;20045;-73
2023/07/20 01:56:12;;;;;;;5.68;2.42;;;;;;;;;;5042936;28;20033;-77
2023/07/20 01:58:40;;;;;;;4.10;2.40;;;;;;;;;;5045183;28;20025;-74
2023/07/20 02:01:06;;;;;;;4.82;2.00;;;;;;;;;;5038425;28;20030;-80
2023/07/20 02:03:35;;;;;;;7.00;2.50;;;;;;;;;;5044706;28;20064;-73
2023/07/20 02:06:01;;;;;;;5.63;2.63;;;;;;;;;;5042288;28;20366;-74
2023/07/20 02:08:27;;;;;;;4.78;2.28;;;;;;;;;;5051242;28;20046;-73
2023/07/20 02:10:55;;;;;;;6.03;2.88;;;;;;;;;;5056791;28;20032;-71
2023/07/20 02:13:21;;;;;;;5.45;2.70;;;;;;;;;;5044916;28;20101;-72
2023/07/20 02:15:49;;;;;;;3.25;2.30;;;;;;;;;;5055938;28;20029;-72
2023/07/20 02:18:15;;;;;;;4.03;2.15;;;;;;;;;;5055334;28;20013;-71
2023/07/20 02:20:41;;;;;;;6.70;3.22;;;;;;;;;;5056534;28;20032;-71
2023/07/20 02:23:10;;;;;;;3.58;2.50;;;;;;;;;;5056635;28;20036;-71
2023/07/20 02:25:36;;;;;;;4.80;2.90;;;;;;;;;;5055647;28;20032;-71
2023/07/20 02:28:05;;;;;;;6.00;3.20;;;;;;;;;;5054091;28;20009;-70
2023/07/20 02:30:30;;;;;;;6.78;3.17;;;;;;;;;;5054775;28;20068;-71
2023/07/20 02:32:59;;;;;;;7.07;2.97;;;;;;;;;;5055680;28;20067;-71
2023/07/20 02:35:25;;;;;;;6.55;3.45;;;;;;;;;;5045951;28;20028;-70
2023/07/20 02:37:51;;;;;;;6.78;3.00;;;;;;;;;;5055243;28;20025;-72
2023/07/20 02:40:17;;;;;;;6.97;3.30;;;;;;;;;;5057651;28;20068;-71
2023/07/20 02:42:46;;;;;;;7.20;3.55;;;;;;;;;;5053756;28;20041;-71
2023/07/20 02:45:12;;;;;;;7.13;3.70;;;;;;;;;;5053527;28;20065;-71
2023/07/20 02:47:38;;;;;;;8.10;3.78;;;;;;;;;;5048185;28;20034;-71
2023/07/20 02:50:07;;;;;;;7.47;3.72;;;;;;;;;;5048204;28;20026;-71
2023/07/20 02:52:33;;;;;;;6.53;3.58;;;;;;;;;;5048040;28;20022;-71
2023/07/20 02:55:01;;;;;;;8.38;3.33;;;;;;;;;;5047577;28;20030;-71
2023/07/20 02:57:27;;;;;;;11.32;4.22;;;;;;;;;;5049725;28;20053;-71
2023/07/20 02:59:54;;;;;;;9.18;3.78;;;;;;;;;;5047953;28;20033;-71
2023/07/20 03:02:20;;;;;;;10.32;3.33;;;;;;;;;;5046846;28;20022;-70
2023/07/20 03:04:46;;;;;;;12.18;3.90;;;;;;;;;;5046949;28;20037;-71
2023/07/20 03:07:12;;;;;;;6.88;3.25;;;;;;;;;;5048487;28;20029;-72
2023/07/20 03:09:41;;;;;;;10.05;3.55;;;;;;;;;;5048234;28;20071;-71
2023/07/20 03:12:09;;;;;;;7.03;3.67;;;;;;;;;;5048258;28;20018;-72
2023/07/20 03:14:35;;;;;;;8.82;3.22;;;;;;;;;;5047042;28;20017;-71
2023/07/20 03:17:01;;;;;;;7.38;4.07;;;;;;;;;;5048256;28;20022;-71
2023/07/20 03:19:29;;;;;;;7.03;3.28;;;;;;;;;;5062383;28;20037;-70
2023/07/20 03:21:55;;;;;;;9.23;3.67;;;;;;;;;;5045675;28;20030;-71
2023/07/20 03:24:21;;;;;;;10.82;4.00;;;;;;;;;;5046040;28;20041;-71
2023/07/20 03:26:50;;;;;;;10.70;3.88;;;;;;;;;;5047955;28;20041;-70
2023/07/20 03:29:18;;;;;;;10.20;3.50;;;;;;;;;;5057516;28;20101;-70
2023/07/20 03:31:44;;;;;;;10.23;3.75;;;;;;;;;;5056502;28;20045;-71
2023/07/20 03:34:10;;;;;;;7.47;3.45;;;;;;;;;;5056979;28;20036;-71
2023/07/20 03:36:38;;;;;;;6.57;3.30;;;;;;;;;;5055008;28;20026;-70
2023/07/20 03:39:04;;;;;;;9.02;3.88;;;;;;;;;;5056571;28;20018;-71
2023/07/20 03:41:30;;;;;;;8.48;3.70;;;;;;;;;;5056357;28;20515;-71
2023/07/20 03:43:56;;;;;;;4.35;2.58;;;;;;;;;;5057093;28;20033;-71
2023/07/20 03:46:22;;;;;;;3.78;2.63;;;;;;;;;;5057578;28;20081;-71
2023/07/20 03:48:48;;;;;;;10.70;3.50;;;;;;;;;;5056251;28;20034;-71
2023/07/20 03:51:17;;;;;;;10.30;3.47;;;;;;;;;;5056356;28;20009;-71
2023/07/20 03:53:42;;;;;;;9.88;3.38;;;;;;;;;;5055622;28;20022;-70
2023/07/20 03:56:08;;;;;;;4.45;3.17;;;;;;;;;;5046389;28;20041;-70
2023/07/20 03:58:35;;;;;;;9.90;3.05;;;;;;;;;;5056016;28;20025;-71
2023/07/20 04:01:00;;;;;;;9.77;2.92;;;;;;;;;;5057016;28;20036;-71
2023/07/20 04:03:26;;;;;;;6.65;3.40;;;;;;;;;;5058359;28;20034;-71
2023/07/20 04:05:55;;;;;;;4.70;2.55;;;;;;;;;;5055799;28;20034;-71
2023/07/20 04:08:22;;;;;;;7.50;3.13;;;;;;;;;;5045604;28;20129;-71
2023/07/20 04:10:48;;;;;;;12.27;3.65;;;;;;;;;;5058261;28;20076;-71
2023/07/20 04:13:14;;;;;;;8.70;3.22;;;;;;;;;;5056213;28;20025;-71
2023/07/20 04:15:42;;;;;;;6.57;3.33;;;;;;;;;;5057856;28;20060;-71
2023/07/20 04:18:08;;;;;;;5.82;2.67;;;;;;;;;;5056347;28;21218;-71
2023/07/20 04:20:37;;;;;;;7.25;3.10;;;;;;;;;;5055090;28;20029;-73
2023/07/20 04:23:03;;;;;;;7.07;3.22;;;;;;;;;;5056172;28;20025;-71
2023/07/20 04:25:29;;;;;;;9.98;3.25;;;;;;;;;;5056197;28;20009;-70
2023/07/20 04:27:55;;;;;;;9.38;3.55;;;;;;;;;;5057159;28;20057;-71
2023/07/20 04:30:22;;;;;;;7.68;3.25;;;;;;;;;;5045867;28;20022;-71
2023/07/20 04:32:48;;;;;;;10.63;3.17;;;;;;;;;;5055627;28;20026;-71
2023/07/20 04:35:33;;;;;;;6.28;3.22;;;;;;;;;;5057906;28;20009;-71
2023/07/20 04:38:01;;;;;;;12.57;3.70;;;;;;;;;;5055486;28;20012;-71
2023/07/20 04:40:30;;;;;;;6.43;2.85;;;;;;;;;;5054132;28;20025;-71
2023/07/20 04:42:58;;;;;;;6.55;3.40;;;;;;;;;;5056979;28;20018;-71
2023/07/20 04:45:24;;;;;;;9.38;3.30;;;;;;;;;;5056476;28;20029;-71
2023/07/20 04:47:51;;;;;;;6.53;2.88;;;;;;;;;;5056982;28;20021;-70
2023/07/20 04:50:16;;;;;;;10.73;3.95;;;;;;;;;;5055056;28;20057;-72
2023/07/20 04:52:46;;;;;;;11.00;3.50;;;;;;;;;;5055342;28;20013;-71
2023/07/20 04:55:12;;;;;;;13.05;4.05;;;;;;;;;;5072205;28;20025;-71
2023/07/20 04:57:38;;;;;;;11.05;3.63;;;;;;;;;;5059024;28;20033;-71
2023/07/20 05:00:04;;;;;;;7.10;3.97;;;;;;;;;;5056598;28;20025;-71
2023/07/20 05:02:30;;;;;;;8.80;3.95;;;;;;;;;;5056101;28;20037;-70
2023/07/20 05:05:05;;;;;;;11.23;4.10;;;;;;;;;;5054972;28;20044;-71
2023/07/20 05:07:31;;;;;;;5.63;3.25;;;;;;;;;;5055662;28;20017;-71
2023/07/20 05:09:57;;;;;;;9.95;4.18;;;;;;;;;;5056524;28;20032;-72
2023/07/20 05:12:23;;;;;;;8.23;3.83;;;;;;;;;;5054160;28;20022;-71
2023/07/20 05:14:49;;;;;;;8.98;4.15;;;;;;;;;;5055246;28;20021;-71
2023/07/20 05:17:15;;;;;;;10.18;4.30;;;;;;;;;;5056224;28;20028;-71
2023/07/20 05:19:41;;;;;;;10.98;4.47;;;;;;;;;;5043607;28;20028;-71
2023/07/20 05:22:07;;;;;;;12.80;5.00;;;;;;;;;;5054183;28;20152;-71
2023/07/20 05:24:33;;;;;;;6.53;3.58;;;;;;;;;;5054478;28;20137;-71
2023/07/20 05:26:59;;;;;;;11.93;4.55;;;;;;;;;;5055810;28;20028;-71
2023/07/20 05:29:25;;;;;;;8.13;4.55;;;;;;;;;;5056664;28;20017;-71
2023/07/20 05:31:54;;;;;;;11.52;4.90;;;;;;;;;;5054231;28;20030;-70
2023/07/20 05:34:20;;;;;;;11.20;4.45;;;;;;;;;;5055099;28;20009;-71
2023/07/20 05:36:49;;;;;;;10.00;5.03;;;;;;;;;;5055199;28;20013;-71
2023/07/20 05:39:15;;;;;;;14.15;5.53;;;;;;;;;;5056483;28;20056;-71
2023/07/20 05:41:41;;;;;;;12.52;6.40;;;;;;;;;;5054686;28;20018;-71
2023/07/20 05:44:07;;;;;;;14.60;7.80;;;;;;;;;;5044498;28;20048;-71
2023/07/20 05:46:33;;;;;;;11.98;6.28;;;;;;;;;;5055641;28;20025;-70
2023/07/20 05:49:00;;;;;;;15.73;7.30;;;;;;;;;;5054518;28;20037;-71
2023/07/20 05:51:26;;;;;;;17.95;6.90;;;;;;;;;;5071251;28;20018;-71
2023/07/20 05:53:54;;;;;;;15.55;6.47;;;;;;;;;;5057332;28;20101;-71
2023/07/20 05:56:20;;;;;;;11.48;6.82;;;;;;;;;;5056608;28;20108;-71
2023/07/20 05:58:46;;;;;;;16.27;7.15;;;;;;;;;;5055776;28;20045;-70
2023/07/20 06:01:14;;;;;;;15.02;7.18;;;;;;;;;;5071190;28;20027;-70
2023/07/20 06:03:40;;;;;;;14.32;7.72;;;;;;;;;;5055447;28;20029;-70
2023/07/20 06:06:11;;;;;;;14.63;7.55;;;;;;;;;;5125030;22;20727;-71
2023/07/20 06:08:37;;;;;;;18.95;7.47;;;;;;;;;;5049257;28;20114;-71
2023/07/20 06:11:03;;;;;;;16.63;7.25;;;;;;;;;;5050433;28;20010;-70
2023/07/20 06:13:29;;;;;;;12.57;7.70;;;;;;;;;;5066324;28;20029;-71
2023/07/20 06:15:58;;;;;;;17.60;8.13;;;;;;;;;;5070681;28;20033;-71
2023/07/20 06:18:24;;;;;;;16.58;7.47;;;;;;;;;;5054080;28;20026;-71
2023/07/20 06:20:50;;;;;;;15.43;8.50;;;;;;;;;;5053882;28;20037;-71
2023/07/20 06:23:19;;;;;;;19.27;8.30;;;;;;;;;;5054222;28;20029;-71
2023/07/20 06:25:46;;;;;;;12.50;8.10;;;;;;;;;;5054911;28;20030;-71
2023/07/20 06:28:12;;;;;;;17.27;8.07;;;;;;;;;;5070978;28;20056;-72
2023/07/20 06:30:38;;;;;;;14.82;8.02;;;;;;;;;;5050920;28;20032;-71
2023/07/20 06:33:04;;;;;;;14.02;8.10;;;;;;;;;;5048994;28;20120;-72
2023/07/20 06:35:30;;;;;;;17.42;7.32;;;;;;;;;;5039815;28;20057;-78
2023/07/20 06:38:00;;;;;;;15.43;7.40;;;;;;;;;;5032322;28;20059;-76
2023/07/20 06:40:28;;;;;;;9.60;7.20;;;;;;;;;;5031102;28;20025;-78
2023/07/20 06:42:56;;;;;;;14.77;7.55;;;;;;;;;;5028029;28;20038;-79
2023/07/20 06:45:24;;;;;;;16.23;8.32;;;;;;;;;;5024893;28;20081;-78
2023/07/20 06:47:50;;;;;;;13.15;7.47;;;;;;;;;;5029868;28;20034;-76
2023/07/20 06:50:16;;;;;;;13.60;8.02;;;;;;;;;;5030144;28;20032;-76
2023/07/20 06:52:42;;;;;;;11.82;8.05;;;;;;;;;;5041567;28;20029;-78
2023/07/20 06:55:08;;;;;;;12.75;7.75;;;;;;;;;;5043976;28;20205;-74
2023/07/20 06:57:37;;;;;;;12.63;7.20;;;;;;;;;;5038858;28;20026;-75
2023/07/20 07:00:04;;;;;;;13.13;7.72;;;;;;;;;;5027627;28;20038;-79
2023/07/20 07:02:30;;;;;;;11.18;7.47;;;;;;;;;;5025912;28;20104;-79
2023/07/20 07:04:58;;;;;;;12.88;7.47;;;;;;;;;;5023437;28;20033;-77
2023/07/20 07:07:24;;;;;;;14.15;8.18;;;;;;;;;;5030051;28;20094;-79
2023/07/20 07:09:50;;;;;;;11.98;7.13;;;;;;;;;;5024588;28;20124;-76
2023/07/20 07:12:16;;;;;;;12.48;7.57;;;;;;;;;;5027128;28;20056;-80
2023/07/20 07:14:42;;;;;;;12.15;7.55;;;;;;;;;;5026563;28;20037;-77
2023/07/20 07:17:08;;;;;;;13.65;6.65;;;;;;;;;;5025181;28;20045;-78
2023/07/20 07:19:38;;;;;;;15.60;8.23;;;;;;;;;;5024867;28;20172;-79
2023/07/20 07:22:04;;;;;;;13.45;7.50;;;;;;;;;;5024541;28;20128;-78
2023/07/20 07:24:33;;;;;;;10.20;6.25;;;;;;;;;;5025722;28;20036;-77
2023/07/20 07:26:59;;;;;;;11.57;7.35;;;;;;;;;;5022600;28;20040;-76
2023/07/20 07:29:26;;;;;;;18.20;7.90;;;;;;;;;;5045302;28;20049;-78
2023/07/20 07:31:52;;;;;;;13.73;8.52;;;;;;;;;;5039281;28;20167;-79
2023/07/20 07:34:18;;;;;;;19.35;6.78;;;;;;;;;;5039532;28;20596;-80
2023/07/20 07:36:45;;;;;;;9.10;6.15;;;;;;;;;;5023790;28;20041;-78
2023/07/20 07:39:11;;;;;;;12.85;6.32;;;;;;;;;;5024607;28;20630;-78
2023/07/20 07:41:39;;;;;;;14.10;6.80;;;;;;;;;;5038193;28;20048;-77
2023/07/20 07:44:06;;;;;;;11.85;5.63;;;;;;;;;;5022525;28;20040;-81
2023/07/20 07:46:34;;;;;;;10.13;5.45;;;;;;;;;;5039511;28;20504;-82
2023/07/20 07:49:02;;;;;;;11.25;6.00;;;;;;;;;;5023706;28;20037;-79
2023/07/20 07:51:31;;;;;;;7.65;4.95;;;;;;;;;;5024332;28;20477;-79
2023/07/20 07:53:59;;;;;;;14.50;4.70;;;;;;;;;;5024065;28;20048;-81
2023/07/20 07:56:25;;;;;;;12.23;4.82;;;;;;;;;;5039910;28;20029;-76
2023/07/20 07:58:51;;;;;;;8.10;4.47;;;;;;;;;;5039746;28;20033;-77
2023/07/20 08:01:18;;;;;;;8.32;4.53;;;;;;;;;;5024133;28;20037;-81
2023/07/20 08:03:47;;;;;;;5.95;3.92;;;;;;;;;;5022079;28;20037;-81
2023/07/20 08:06:15;;;;;;;7.13;4.30;;;;;;;;;;5022505;28;20037;-79
2023/07/20 08:08:42;;;;;;;9.55;4.50;;;;;;;;;;5023728;28;20104;-76
2023/07/20 08:11:08;;;;;;;13.68;4.30;;;;;;;;;;5022630;28;20045;-77
2023/07/20 08:13:37;;;;;;;7.55;4.47;;;;;;;;;;5023644;28;20071;-79
2023/07/20 08:16:03;;;;;;;7.45;3.55;;;;;;;;;;5027629;28;20057;-81
2023/07/20 08:18:29;;;;;;;6.10;4.03;;;;;;;;;;5023227;28;20098;-81
2023/07/20 08:20:55;;;;;;;5.72;3.67;;;;;;;;;;5022796;28;20636;-76
2023/07/20 08:23:23;;;;;;;3.80;2.80;;;;;;;;;;5021956;28;20128;-79
2023/07/20 08:25:49;;;;;;;9.10;3.10;;;;;;;;;;5026217;28;20033;-76
2023/07/20 08:28:16;;;;;;;7.90;3.28;;;;;;;;;;5037992;28;20029;-81
2023/07/20 08:30:43;;;;;;;3.38;2.35;;;;;;;;;;5023175;28;20431;-79
2023/07/20 08:33:10;;;;;;;4.13;2.92;;;;;;;;;;5022806;28;20034;-78
2023/07/20 08:35:36;;;;;;;4.80;2.72;;;;;;;;;;5021641;28;20037;-78
2023/07/20 08:38:04;;;;;;;5.53;3.03;;;;;;;;;;5022965;28;21579;-81
2023/07/20 08:40:30;;;;;;;3.08;2.03;;;;;;;;;;5022603;28;20065;-79
2023/07/20 08:42:59;;;;;;;4.78;2.08;;;;;;;;;;5022340;28;20115;-79
2023/07/20 08:45:31;;;;;;;5.20;2.30;;;;;;;;;;5022143;28;20038;-80
2023/07/20 08:47:59;;;;;;;3.78;1.70;;;;;;;;;;5037354;28;20107;-76
2023/07/20 08:50:29;;;;;;;7.18;1.85;;;;;;;;;;5021924;28;20033;-82
2023/07/20 08:52:57;;;;;;;4.57;2.60;;;;;;;;;;5022717;28;20112;-79
2023/07/20 08:55:26;;;;;;;3.58;2.05;;;;;;;;;;5021459;28;20068;-79
2023/07/20 08:57:54;;;;;;;4.05;1.90;;;;;;;;;;5037717;28;20120;-80
2023/07/20 09:00:21;;;;;;;6.00;1.95;;;;;;;;;;5021459;28;20038;-83
2023/07/20 09:02:48;;;;;;;5.78;3.00;;;;;;;;;;5022616;28;20041;-80
2023/07/20 09:05:15;;;;;;;6.88;2.28;;;;;;;;;;5022149;28;20044;-83
2023/07/20 09:07:41;;;;;;;6.78;2.75;;;;;;;;;;5021936;28;20038;-82
2023/07/20 09:10:10;;;;;;;2.97;1.85;;;;;;;;;;5022558;28;20353;-80
2023/07/20 09:12:42;;;;;;;5.15;2.20;;;;;;;;;;5023520;28;20108;-79
2023/07/20 09:15:11;;;;;;;4.03;2.10;;;;;;;;;;5038261;28;20033;-79
2023/07/20 09:17:37;;;;;;;4.47;2.40;;;;;;;;;;5021220;28;20037;-79
2023/07/20 09:20:10;;;;;;;4.03;2.22;;;;;;;;;;5040416;28;20031;-77
2023/07/20 09:22:39;;;;;;;2.72;1.73;;;;;;;;;;5022401;28;20025;-84
2023/07/20 09:25:06;;;;;;;8.07;2.10;;;;;;;;;;5024420;28;20032;-79
2023/07/20 09:27:37;;;;;;;2.88;1.88;;;;;;;;;;5025232;28;20155;-80
2023/07/20 09:30:13;;;;;;;4.90;1.92;;;;;;;;;;5020649;28;20040;-79
2023/07/20 09:32:40;;;;;;;5.30;1.50;;;;;;;;;;5021172;28;20021;-83
2023/07/20 09:35:07;;;;;;;2.45;1.48;;;;;;;;;;5023110;28;20171;-81
2023/07/20 09:37:33;;;;;;;11.07;2.00;;;;;;;;;;5038622;28;20909;-81
2023/07/20 09:40:00;;;;;;;4.70;1.67;;;;;;;;;;5022617;28;20116;-78
2023/07/20 09:42:27;;;;;;;4.65;1.50;;;;;;;;;;5042725;28;20209;-79
2023/07/20 09:44:55;;;;;;;3.88;1.15;;;;;;;;;;5019773;28;20033;-79
2023/07/20 09:47:26;;;;;;;1.92;1.08;;;;;;;;;;5021776;28;20033;-79
2023/07/20 09:50:00;;;;;;;1.98;0.90;;;;;;;;;;5021002;28;20052;-83
2023/07/20 09:52:27;;;;;;;3.75;1.38;;;;;;;;;;5022569;28;20037;-75
2023/07/20 09:54:53;;;;;;;3.30;1.20;;;;;;;;;;5021352;28;20047;-82
2023/07/20 09:57:21;;;;;;;3.95;1.38;;;;;;;;;;5022029;28;20041;-82
2023/07/20 09:59:48;;;;;;;3.20;1.35;;;;;;;;;;5038961;28;20041;-79
2023/07/20 10:02:34;;;;;;;3.15;1.42;;;;;;;;;;5038384;28;20029;-83
2023/07/20 10:05:02;;;;;;;5.03;1.42;;;;;;;;;;5023998;28;20095;-81
2023/07/20 10:07:28;;;;;;;7.28;1.08;;;;;;;;;;5022006;28;20504;-82
2023/07/20 10:09:56;;;;;;;4.78;1.00;;;;;;;;;;5036446;28;20453;-80
2023/07/20 10:12:23;;;;;;;5.82;1.52;;;;;;;;;;5021261;28;20033;-77
2023/07/20 10:14:58;;;;;;;2.15;1.17;;;;;;;;;;5022051;28;20029;-79
2023/07/20 10:17:25;;;;;;;3.35;1.25;;;;;;;;;;5022700;28;20033;-78
2023/07/20 10:19:55;;;;;;;2.42;1.10;;;;;;;;;;5037311;28;20036;-78
2023/07/20 10:22:26;;;;;;;1.52;1.13;;;;;;;;;;5021437;28;20038;-81
2023/07/20 10:24:53;;;;;;;4.55;1.40;;;;;;;;;;5037345;28;20059;-77
2023/07/20 10:27:20;;;;;;;2.17;1.13;;;;;;;;;;5020731;28;20040;-79
2023/07/20 10:29:49;;;;;;;1.38;0.70;;;;;;;;;;5020953;28;20361;-78
2023/07/20 10:32:17;;;;;;;3.65;0.95;;;;;;;;;;5020418;28;20037;-81
2023/07/20 10:34:43;;;;;;;3.10;0.80;;;;;;;;;;5020625;28;20037;-80
2023/07/20 10:37:29;;;;;;;1.60;0.80;;;;;;;;;;5037102;28;20029;-83
2023/07/20 10:39:56;;;;;;;1.30;0.80;;;;;;;;;;5037356;28;20044;-80
2023/07/20 10:42:25;;;;;;;3.97;0.88;;;;;;;;;;5021500;28;20504;-79
2023/07/20 10:44:51;;;;;;;1.33;0.57;;;;;;;;;;5021078;28;20083;-81
2023/07/20 10:47:17;;;;;;;2.85;0.90;;;;;;;;;;5021329;28;20057;-78
2023/07/20 10:50:06;;;;;;;2.53;0.77;;;;;;;;;;5020391;28;20091;-81
2023/07/20 10:52:40;;;;;;;4.55;0.93;;;;;;;;;;5020698;28;20022;-80
2023/07/20 10:55:21;;;;;;;1.13;0.80;;;;;;;;;;5021658;28;20044;-81
2023/07/20 10:58:06;;;;;;;1.23;0.50;;;;;;;;;;5020808;28;20116;-79
2023/07/20 11:00:33;;;;;;;2.47;1.10;;;;;;;;;;5037297;28;20475;-77
2023/07/20 11:02:59;;;;;;;1.27;0.73;;;;;;;;;;5023671;28;20043;-80
2023/07/20 11:05:36;;;;;;;2.20;0.80;;;;;;;;;;5023694;28;20048;-80
2023/07/20 11:08:08;;;;;;;2.25;0.60;;;;;;;;;;5022880;28;20709;-79
2023/07/20 11:10:34;;;;;;;3.75;0.80;;;;;;;;;;5024140;28;20079;-79
2023/07/20 11:13:21;;;;;;;2.58;0.88;;;;;;;;;;5024454;28;20073;-76
2023/07/20 11:15:50;;;;;;;1.58;0.63;;;;;;;;;;5021315;28;20030;-82
2023/07/20 11:18:16;;;;;;;1.65;0.60;;;;;;;;;;5023671;28;20025;-82
2023/07/20 11:20:42;;;;;;;2.10;0.65;;;;;;;;;;5024531;28;20327;-77
2023/07/20 11:23:09;;;;;;;1.77;0.82;;;;;;;;;;5019766;28;20029;-81
2023/07/20 11:25:41;;;;;;;1.20;0.50;;;;;;;;;;5023308;28;20160;-81
2023/07/20 11:28:10;;;;;;;2.05;0.77;;;;;;;;;;5039206;28;20026;-84
2023/07/20 11:30:37;;;;;;;3.42;0.95;;;;;;;;;;5024111;28;20462;-81
2023/07/20 11:33:04;;;;;;;2.67;0.80;;;;;;;;;;5024073;28;20037;-78
2023/07/20 11:35:30;;;;;;;2.15;0.80;;;;;;;;;;5023925;28;21668;-82
2023/07/20 11:37:58;;;;;;;4.88;1.05;;;;;;;;;;5023908;28;20041;-82
2023/07/20 11:40:25;;;;;;;1.75;0.80;;;;;;;;;;5023335;28;20029;-81
2023/07/20 11:42:51;;;;;;;2.90;1.02;;;;;;;;;;5023239;28;20056;-82
2023/07/20 11:45:20;;;;;;;2.42;0.80;;;;;;;;;;5023223;28;20040;-80
2023/07/20 11:47:48;;;;;;;1.92;0.95;;;;;;;;;;5024079;28;20095;-79
2023/07/20 11:50:15;;;;;;;3.88;0.70;;;;;;;;;;5020646;28;20588;-81
2023/07/20 11:52:41;;;;;;;2.17;0.70;;;;;;;;;;5023708;28;20117;-82
2023/07/20 11:55:08;;;;;;;2.03;0.63;;;;;;;;;;5023698;28;20465;-77
2023/07/20 11:57:34;;;;;;;11.13;0.90;;;;;;;;;;5041947;28;20117;-80
2023/07/20 12:00:08;;;;;;;1.75;0.80;;;;;;;;;;5024388;28;20179;-82
2023/07/20 12:02:35;;;;;;;2.90;0.85;;;;;;;;;;5026470;28;20358;-81
2023/07/20 12:05:05;;;;;;;4.15;0.70;;;;;;;;;;5022516;28;20033;-80
2023/07/20 12:07:36;;;;;;;3.00;0.60;;;;;;;;;;5028677;28;20132;-82
2023/07/20 12:10:08;;;;;;;1.33;0.80;;;;;;;;;;5023691;28;20021;-79
2023/07/20 12:12:35;;;;;;;9.90;1.00;;;;;;;;;;5022906;28;20358;-79
2023/07/20 12:15:14;;;;;;;8.38;0.85;;;;;;;;;;5022896;28;20034;-81
2023/07/20 12:17:49;;;;;;;3.33;0.93;;;;;;;;;;5026071;28;20041;-82
2023/07/20 12:20:25;;;;;;;4.57;0.70;;;;;;;;;;5022963;28;20029;-78
2023/07/20 12:22:51;;;;;;;2.05;0.70;;;;;;;;;;5023531;28;20040;-79
2023/07/20 12:25:19;;;;;;;2.08;0.60;;;;;;;;;;5023646;28;20037;-82
2023/07/20 12:27:46;;;;;;;1.20;0.50;;;;;;;;;;5023131;28;20047;-80
2023/07/20 12:30:13;;;;;;;2.67;1.08;;;;;;;;;;5022658;28;20022;-81
2023/07/20 12:32:42;;;;;;;1.27;0.55;;;;;;;;;;5022619;28;20029;-76
2023/07/20 12:35:08;;;;;;;3.25;0.70;;;;;;;;;;5022517;28;20036;-81
2023/07/20 12:37:34;;;;;;;1.95;0.40;;;;;;;;;;5021296;28;20033;-77
2023/07/20 12:40:05;;;;;;;0.82;0.40;;;;;;;;;;5022749;28;20033;-81
2023/07/20 12:42:30;;;;;;;1.85;0.63;;;;;;;;;;5022349;28;20025;-79
2023/07/20 12:44:56;;;;;;;3.08;0.70;;;;;;;;;;5022770;28;20080;-80
2023/07/20 12:47:25;;;;;;;1.10;0.55;;;;;;;;;;5022874;28;20113;-82
2023/07/20 12:49:51;;;;;;;1.58;0.43;;;;;;;;;;5038219;28;20033;-81
2023/07/20 12:52:17;;;;;;;2.65;0.40;;;;;;;;;;5020742;28;20111;-83
2023/07/20 12:54:45;;;;;;;3.83;0.70;;;;;;;;;;5022005;28;20052;-81
2023/07/20 12:57:11;;;;;;;3.13;0.90;;;;;;;;;;5021502;28;20034;-82
2023/07/20 12:59:42;;;;;;;4.28;0.90;;;;;;;;;;5022517;28;20122;-80
2023/07/20 13:02:10;;;;;;;4.65;0.80;;;;;;;;;;5021525;28;20029;-79
2023/07/20 13:04:36;;;;;;;1.42;0.70;;;;;;;;;;5022089;28;20033;-81
2023/07/20 13:07:02;;;;;;;1.98;1.10;;;;;;;;;;5022142;28;20036;-77
2023/07/20 13:09:28;;;;;;;2.63;0.65;;;;;;;;;;5021943;28;20442;-77
2023/07/20 13:11:54;;;;;;;3.22;0.60;;;;;;;;;;5022385;28;20545;-81
2023/07/20 13:14:20;;;;;;;11.35;0.90;;;;;;;;;;5021732;28;20469;-79
2023/07/20 13:16:46;;;;;;;2.53;0.57;;;;;;;;;;5021615;28;20044;-79
2023/07/20 13:19:14;;;;;;;1.33;0.60;;;;;;;;;;5021856;28;20033;-83
2023/07/20 13:21:40;;;;;;;1.58;0.70;;;;;;;;;;5020235;28;20037;-78
2023/07/20 13:24:06;;;;;;;1.50;0.60;;;;;;;;;;5020144;28;20033;-82
2023/07/20 13:26:32;;;;;;;2.50;0.90;;;;;;;;;;5021482;28;20025;-81
2023/07/20 13:28:58;;;;;;;1.17;0.50;;;;;;;;;;5022186;28;20083;-80
2023/07/20 13:31:24;;;;;;;1.55;0.60;;;;;;;;;;5021347;28;20627;-82
2023/07/20 13:33:50;;;;;;;1.92;0.47;;;;;;;;;;5037832;28;20120;-78
2023/07/20 13:36:20;;;;;;;4.70;0.75;;;;;;;;;;5021264;28;20469;-82
2023/07/20 13:38:46;;;;;;;3.55;0.80;;;;;;;;;;5021818;28;20026;-83
2023/07/20 13:41:12;;;;;;;1.50;0.55;;;;;;;;;;5022329;28;20076;-79
2023/07/20 13:43:43;;;;;;;3.80;1.02;;;;;;;;;;5021400;28;20049;-79
2023/07/20 13:46:09;;;;;;;1.50;0.60;;;;;;;;;;5019176;28;20025;-79
2023/07/20 13:48:35;;;;;;;4.03;0.80;;;;;;;;;;5022011;28;20025;-81
2023/07/20 13:51:03;;;;;;;3.95;0.90;;;;;;;;;;5036995;28;20426;-77
2023/07/20 13:53:31;;;;;;;1.90;0.68;;;;;;;;;;5022003;28;20025;-82
2023/07/20 13:56:00;;;;;;;3.88;0.60;;;;;;;;;;5021702;28;20381;-79
2023/07/20 13:58:26;;;;;;;5.43;1.20;;;;;;;;;;5021071;28;20545;-82
2023/07/20 14:00:52;;;;;;;8.35;1.08;;;;;;;;;;5019924;28;20125;-79
2023/07/20 14:03:18;;;;;;;2.00;0.68;;;;;;;;;;5021638;28;20036;-83
2023/07/20 14:05:44;;;;;;;4.07;0.82;;;;;;;;;;5021608;28;20094;-82
2023/07/20 14:08:10;;;;;;;2.60;0.77;;;;;;;;;;5021342;28;20448;-80
2023/07/20 14:10:36;;;;;;;4.40;1.10;;;;;;;;;;5023142;28;20029;-79
2023/07/20 14:13:01;;;;;;;2.42;0.82;;;;;;;;;;5022489;28;20040;-79
2023/07/20 14:15:28;;;;;;;3.55;0.95;;;;;;;;;;5023936;28;20051;-79
2023/07/20 14:17:56;;;;;;;2.17;0.60;;;;;;;;;;5021222;28;20036;-79
2023/07/20 14:20:24;;;;;;;2.55;1.15;;;;;;;;;;5021756;28;20438;-80
2023/07/20 14:22:53;;;;;;;2.85;0.57;;;;;;;;;;5019779;28;20033;-80
2023/07/20 14:25:21;;;;;;;4.35;0.50;;;;;;;;;;5023930;28;20072;-80
2023/07/20 14:27:47;;;;;;;3.03;0.70;;;;;;;;;;5020294;28;20140;-76
2023/07/20 14:30:13;;;;;;;4.28;0.93;;;;;;;;;;5023587;28;20025;-79
2023/07/20 14:32:39;;;;;;;4.78;0.73;;;;;;;;;;5022370;28;20048;-82
2023/07/20 14:35:06;;;;;;;1.27;0.63;;;;;;;;;;5037416;28;20052;-79
2023/07/20 14:37:32;;;;;;;5.03;0.82;;;;;;;;;;5024594;28;20048;-78
2023/07/20 14:39:58;;;;;;;0.73;0.55;;;;;;;;;;5024733;28;20038;-81
2023/07/20 14:42:24;;;;;;;3.13;0.52;;;;;;;;;;5027615;28;20060;-80
2023/07/20 14:44:52;;;;;;;3.03;0.65;;;;;;;;;;5039984;28;20043;-76